createdAt,value
2022-08-03T00:01:39.195Z,18.47
2022-08-03T00:04:07.464Z,18.64
2022-08-03T00:06:37.156Z,18.64
2022-08-03T00:09:06.124Z,18.73
2022-08-03T00:11:33.247Z,18.63
2022-08-03T00:14:00.680Z,18.54
2022-08-03T00:16:27.644Z,18.58
2022-08-03T00:18:54.518Z,18.70
2022-08-03T00:21:21.435Z,18.61
2022-08-03T00:23:51.397Z,18.81
2022-08-03T00:26:20.378Z,18.66
2022-08-03T00:28:47.356Z,18.88
2022-08-03T00:31:14.291Z,18.87
2022-08-03T00:33:59.720Z,18.82
2022-08-03T00:36:28.902Z,18.87
2022-08-03T00:38:56.857Z,18.74
2022-08-03T00:41:23.847Z,18.76
2022-08-03T00:43:50.950Z,18.79
2022-08-03T00:46:21.675Z,18.44
2022-08-03T00:48:52.556Z,18.49
2022-08-03T00:51:21.834Z,18.55
2022-08-03T00:53:49.542Z,18.43
2022-08-03T00:56:17.278Z,18.21
2022-08-03T00:58:45.418Z,18.14
2022-08-03T01:01:12.870Z,17.79
2022-08-03T01:03:40.158Z,17.92
2022-08-03T01:06:18.704Z,17.93
2022-08-03T01:09:07.805Z,17.97
2022-08-03T01:12:04.717Z,17.86
2022-08-03T01:14:38.527Z,17.88
2022-08-03T01:17:14.462Z,17.86
2022-08-03T01:19:46.709Z,17.74
2022-08-03T01:22:41.241Z,17.61
2022-08-03T01:25:29.795Z,17.56
2022-08-03T01:28:03.663Z,17.52
2022-08-03T01:30:33.812Z,17.50
2022-08-03T01:33:03.381Z,17.47
2022-08-03T01:35:38.622Z,17.42
2022-08-03T01:38:16.016Z,17.40
2022-08-03T01:40:47.240Z,17.56
2022-08-03T01:44:26.462Z,17.70
2022-08-03T01:46:07.808Z,17.87
2022-08-03T01:48:39.903Z,18.06
2022-08-03T01:51:09.379Z,18.23
2022-08-03T01:53:39.062Z,18.33
2022-08-03T01:56:07.620Z,18.12
2022-08-03T01:58:36.981Z,18.28
2022-08-03T02:01:05.511Z,18.11
2022-08-03T02:03:36.755Z,18.12
2022-08-03T02:06:59.797Z,17.92
2022-08-03T02:08:55.601Z,17.77
2022-08-03T02:11:22.830Z,17.68
2022-08-03T02:13:51.249Z,17.49
2022-08-03T02:16:19.502Z,17.45
2022-08-03T02:18:48.296Z,17.13
2022-08-03T02:21:55.854Z,17.28
2022-08-03T02:24:04.856Z,17.05
2022-08-03T02:26:32.362Z,17.05
2022-08-03T02:29:05.685Z,16.86
2022-08-03T02:31:37.720Z,16.92
2022-08-03T02:34:10.588Z,16.75
2022-08-03T02:36:39.818Z,16.80
2022-08-03T02:39:10.076Z,16.70
2022-08-03T02:41:53.092Z,16.54
2022-08-03T02:44:25.898Z,16.52
2022-08-03T02:46:56.171Z,16.49
2022-08-03T02:49:40.624Z,16.56
2022-08-03T02:52:16.926Z,16.56
2022-08-03T02:54:46.377Z,16.40
2022-08-03T02:57:15.459Z,16.44
2022-08-03T02:59:44.426Z,16.43
2022-08-03T03:02:12.833Z,16.51
2022-08-03T03:05:01.311Z,16.20
2022-08-03T03:07:28.870Z,16.35
2022-08-03T03:09:58.570Z,16.22
2022-08-03T03:12:27.070Z,16.22
2022-08-03T03:14:54.260Z,16.13
2022-08-03T03:17:22.085Z,16.14
2022-08-03T03:19:51.323Z,16.28
2022-08-03T03:22:19.446Z,16.32
2022-08-03T03:24:48.207Z,16.40
2022-08-03T03:27:16.702Z,16.80
2022-08-03T03:29:44.246Z,17.08
2022-08-03T03:32:11.231Z,17.20
2022-08-03T03:34:38.437Z,17.09
2022-08-03T03:37:05.600Z,17.17
2022-08-03T03:39:32.539Z,17.32
2022-08-03T03:42:01.166Z,17.44
2022-08-03T03:44:31.468Z,17.53
2022-08-03T03:46:58.499Z,17.81
2022-08-03T03:49:26.667Z,17.98
2022-08-03T03:51:55.063Z,17.75
2022-08-03T03:54:22.115Z,17.96
2022-08-03T03:56:53.651Z,17.91
2022-08-03T03:59:20.525Z,17.86
2022-08-03T04:01:47.513Z,17.87
2022-08-03T04:04:44.715Z,17.71
2022-08-03T04:07:30.388Z,17.73
2022-08-03T04:10:16.428Z,17.62
2022-08-03T04:12:50.100Z,17.50
2022-08-03T04:15:21.862Z,17.47
2022-08-03T04:17:50.744Z,17.56
2022-08-03T04:20:20.977Z,17.63
2022-08-03T04:22:51.179Z,17.56
2022-08-03T04:25:21.122Z,18.14
2022-08-03T04:28:07.793Z,18.28
2022-08-03T04:30:47.649Z,18.33
2022-08-03T04:33:16.554Z,18.48
2022-08-03T04:36:01.190Z,18.50
2022-08-03T04:38:36.132Z,18.72
2022-08-03T04:41:03.899Z,18.86
2022-08-03T04:43:33.775Z,19.16
2022-08-03T04:46:01.951Z,19.18
2022-08-03T04:48:29.354Z,19.26
2022-08-03T04:50:56.642Z,19.40
2022-08-03T04:53:23.729Z,19.39
2022-08-03T04:55:50.635Z,19.32
2022-08-03T04:58:17.596Z,19.61
2022-08-03T05:00:45.760Z,19.57
2022-08-03T05:03:19.522Z,19.88
2022-08-03T05:05:53.145Z,20.08
2022-08-03T05:08:29.447Z,20.26
2022-08-03T05:10:59.569Z,20.20
2022-08-03T05:13:26.838Z,20.55
2022-08-03T05:15:53.902Z,20.77
2022-08-03T05:18:21.246Z,20.88
2022-08-03T05:20:48.153Z,20.87
2022-08-03T05:23:15.011Z,20.87
2022-08-03T05:25:49.608Z,21.17
2022-08-03T05:28:17.231Z,21.26
2022-08-03T05:30:44.334Z,21.43
2022-08-03T05:33:11.530Z,21.51
2022-08-03T05:36:00.651Z,21.72
2022-08-03T05:38:28.613Z,21.83
2022-08-03T05:41:22.580Z,21.90
2022-08-03T05:43:46.939Z,22.06
2022-08-03T05:46:13.777Z,22.11
2022-08-03T05:48:42.252Z,22.24
2022-08-03T05:51:11.861Z,22.44
2022-08-03T05:53:42.950Z,22.63
2022-08-03T05:56:13.601Z,22.68
2022-08-03T05:58:47.732Z,22.79
2022-08-03T06:01:16.996Z,22.77
2022-08-03T06:03:44.631Z,22.93
2022-08-03T06:06:11.900Z,23.08
2022-08-03T06:08:39.203Z,23.31
2022-08-03T06:11:06.115Z,23.55
2022-08-03T06:13:33.358Z,23.39
2022-08-03T06:16:00.262Z,23.70
2022-08-03T06:18:27.300Z,23.80
2022-08-03T06:20:55.059Z,23.82
2022-08-03T06:23:22.141Z,24.03
2022-08-03T06:25:49.107Z,24.09
2022-08-03T06:28:51.631Z,24.01
2022-08-03T06:31:03.785Z,24.19
2022-08-03T06:34:30.197Z,24.18
2022-08-03T06:36:20.837Z,24.33
2022-08-03T06:38:47.933Z,24.67
2022-08-03T06:41:14.902Z,24.67
2022-08-03T06:44:03.856Z,24.59
2022-08-03T06:46:29.491Z,24.69
2022-08-03T06:48:56.851Z,24.87
2022-08-03T06:52:04.568Z,25.26
2022-08-03T06:54:11.082Z,25.45
2022-08-03T06:56:38.028Z,24.92
2022-08-03T06:59:05.141Z,25.34
2022-08-03T07:01:32.079Z,25.60
2022-08-03T07:03:58.978Z,25.80
2022-08-03T07:06:25.865Z,26.01
2022-08-03T07:08:56.504Z,25.62
2022-08-03T07:11:26.144Z,26.07
2022-08-03T07:13:52.974Z,26.07
2022-08-03T07:16:20.234Z,26.29
2022-08-03T07:18:47.190Z,26.19
2022-08-03T07:21:14.336Z,26.52
2022-08-03T07:23:41.216Z,26.74
2022-08-03T07:26:08.071Z,26.62
2022-08-03T07:28:34.960Z,26.70
2022-08-03T07:31:01.842Z,26.98
2022-08-03T07:33:28.780Z,27.12
2022-08-03T07:35:55.816Z,26.99
2022-08-03T07:38:22.667Z,27.16
2022-08-03T07:40:49.592Z,27.08
2022-08-03T07:43:17.840Z,27.25
2022-08-03T07:45:44.777Z,27.57
2022-08-03T07:48:12.499Z,27.62
2022-08-03T07:50:39.862Z,27.78
2022-08-03T07:53:06.778Z,27.92
2022-08-03T07:55:33.892Z,28.12
2022-08-03T07:58:00.799Z,28.31
2022-08-03T08:00:27.680Z,28.26
2022-08-03T08:02:54.508Z,28.04
2022-08-03T08:05:21.402Z,28.29
2022-08-03T08:07:51.582Z,28.62
2022-08-03T08:10:19.025Z,28.38
2022-08-03T08:12:46.641Z,28.37
2022-08-03T08:15:15.338Z,28.71
2022-08-03T08:17:50.248Z,28.55
2022-08-03T08:20:27.950Z,28.89
2022-08-03T08:22:58.234Z,28.93
2022-08-03T08:25:28.022Z,28.82
2022-08-03T08:28:29.372Z,28.68
2022-08-03T08:30:41.788Z,29.26
2022-08-03T08:33:15.579Z,28.75
2022-08-03T08:35:51.398Z,29.01
2022-08-03T08:38:18.301Z,29.32
2022-08-03T08:40:45.359Z,29.58
2022-08-03T08:43:12.244Z,29.88
2022-08-03T08:45:40.813Z,29.96
2022-08-03T08:48:09.678Z,29.95
2022-08-03T08:50:38.929Z,30.02
2022-08-03T08:53:09.683Z,29.77
2022-08-03T08:55:59.289Z,30.17
2022-08-03T08:58:28.774Z,30.35
2022-08-03T09:00:56.234Z,30.50
2022-08-03T09:03:29.295Z,30.46
2022-08-03T09:06:00.399Z,30.12
2022-08-03T09:08:27.299Z,30.35
2022-08-03T09:10:54.185Z,30.43
2022-08-03T09:13:21.382Z,30.71
2022-08-03T09:16:00.592Z,30.76
2022-08-03T09:18:32.406Z,31.14
2022-08-03T09:21:33.920Z,31.42
2022-08-03T09:24:05.860Z,31.75
2022-08-03T09:26:38.522Z,31.83
2022-08-03T09:29:14.751Z,31.63
2022-08-03T09:31:47.283Z,32.15
2022-08-03T09:34:16.392Z,32.18
2022-08-03T09:36:47.672Z,31.84
2022-08-03T09:39:41.281Z,32.44
2022-08-03T09:42:23.628Z,32.59
2022-08-03T09:44:52.036Z,32.72
2022-08-03T09:47:33.166Z,32.61
2022-08-03T09:50:07.009Z,33.03
2022-08-03T09:52:50.223Z,33.31
2022-08-03T09:56:32.706Z,32.97
2022-08-03T09:58:12.909Z,32.68
2022-08-03T10:00:55.027Z,32.79
2022-08-03T10:03:23.421Z,33.46
2022-08-03T10:05:50.417Z,32.54
2022-08-03T10:08:19.722Z,32.17
2022-08-03T10:10:48.698Z,31.79
2022-08-03T10:13:16.170Z,31.66
2022-08-03T10:16:23.783Z,31.25
2022-08-03T10:18:31.196Z,31.29
2022-08-03T10:21:08.234Z,31.90
2022-08-03T10:23:36.184Z,32.38
2022-08-03T10:26:05.628Z,32.67
2022-08-03T10:28:44.735Z,32.64
2022-08-03T10:31:14.238Z,31.68
2022-08-03T10:33:52.786Z,30.46
2022-08-03T10:36:23.908Z,30.95
2022-08-03T10:38:55.346Z,31.04
2022-08-03T10:41:26.233Z,30.82
2022-08-03T10:44:10.731Z,31.32
2022-08-03T10:46:44.310Z,31.21
2022-08-03T10:49:34.356Z,31.09
2022-08-03T10:52:10.382Z,32.21
2022-08-03T10:55:07.847Z,32.44
2022-08-03T10:57:58.653Z,33.34
2022-08-03T11:00:28.256Z,33.84
2022-08-03T11:03:14.722Z,32.64
2022-08-03T11:05:47.121Z,33.19
2022-08-03T11:08:25.258Z,33.63
2022-08-03T11:10:55.317Z,33.83
2022-08-03T11:13:25.216Z,33.71
2022-08-03T11:16:00.020Z,33.77
2022-08-03T11:18:30.070Z,33.15
2022-08-03T11:20:59.235Z,32.85
2022-08-03T11:24:05.307Z,33.03
2022-08-03T11:26:33.872Z,32.21
2022-08-03T11:29:30.933Z,32.68
2022-08-03T11:31:58.178Z,33.30
2022-08-03T11:34:25.627Z,32.75
2022-08-03T11:37:37.439Z,33.33
2022-08-03T11:40:06.222Z,33.65
2022-08-03T11:42:36.703Z,33.88
2022-08-03T11:45:07.859Z,34.47
2022-08-03T11:47:51.092Z,34.27
2022-08-03T11:50:20.148Z,34.12
2022-08-03T11:52:48.250Z,33.57
2022-08-03T11:55:20.470Z,32.88
2022-08-03T11:59:19.212Z,33.13
2022-08-03T12:00:35.578Z,32.63
2022-08-03T12:03:12.136Z,31.75
2022-08-03T12:05:53.111Z,31.46
2022-08-03T12:08:19.923Z,31.25
2022-08-03T12:10:50.233Z,31.14
2022-08-03T12:14:43.733Z,30.99
2022-08-03T12:16:07.101Z,31.13
2022-08-03T12:18:34.341Z,31.02
2022-08-03T12:21:10.420Z,30.64
2022-08-03T12:23:38.470Z,31.26
2022-08-03T12:26:08.563Z,31.48
2022-08-03T12:28:38.405Z,32.59
2022-08-03T12:31:07.594Z,32.30
2022-08-03T12:33:58.737Z,31.98
2022-08-03T12:36:26.974Z,31.78
2022-08-03T12:38:59.633Z,31.58
2022-08-03T12:41:40.967Z,31.51
2022-08-03T12:44:09.468Z,31.31
2022-08-03T12:46:47.017Z,31.22
2022-08-03T12:49:17.409Z,31.13
2022-08-03T12:51:44.243Z,31.41
2022-08-03T12:54:24.687Z,31.55
2022-08-03T12:57:05.259Z,32.27
2022-08-03T12:59:35.165Z,32.86
2022-08-03T13:02:24.171Z,33.13
2022-08-03T13:04:52.928Z,33.31
2022-08-03T13:07:21.228Z,33.49
2022-08-03T13:09:57.202Z,33.03
2022-08-03T13:12:26.308Z,32.71
2022-08-03T13:14:58.801Z,32.68
2022-08-03T13:17:26.410Z,32.18
2022-08-03T13:19:53.727Z,32.71
2022-08-03T13:22:30.929Z,33.15
2022-08-03T13:24:58.417Z,33.76
2022-08-03T13:28:03.619Z,33.71
2022-08-03T13:30:13.368Z,34.21
2022-08-03T13:32:40.394Z,34.17
2022-08-03T13:35:08.806Z,34.54
2022-08-03T13:37:37.502Z,33.80
2022-08-03T13:40:06.941Z,33.91
2022-08-03T13:42:36.021Z,34.12
2022-08-03T13:45:04.101Z,34.24
2022-08-03T13:47:31.212Z,34.56
2022-08-03T13:50:01.118Z,34.70
2022-08-03T13:52:38.333Z,34.70
2022-08-03T13:55:06.855Z,35.03
2022-08-03T13:58:05.277Z,35.15
2022-08-03T14:00:29.001Z,35.16
2022-08-03T14:03:09.144Z,35.23
2022-08-03T14:05:40.348Z,35.15
2022-08-03T14:08:08.002Z,35.08
2022-08-03T14:10:40.747Z,34.88
2022-08-03T14:13:08.173Z,34.35
2022-08-03T14:15:37.584Z,34.49
2022-08-03T14:18:06.824Z,34.78
2022-08-03T14:20:38.746Z,34.82
2022-08-03T14:23:15.039Z,34.61
2022-08-03T14:25:43.654Z,34.69
2022-08-03T14:28:23.194Z,34.63
2022-08-03T14:30:54.443Z,34.87
2022-08-03T14:33:21.802Z,35.32
2022-08-03T14:35:49.476Z,35.25
2022-08-03T14:38:16.803Z,35.29
2022-08-03T14:40:44.165Z,35.25
2022-08-03T14:43:11.133Z,34.88
2022-08-03T14:45:39.223Z,34.84
2022-08-03T14:50:29.739Z,34.82
2022-08-03T14:50:53.748Z,35.08
2022-08-03T14:53:21.181Z,34.93
2022-08-03T14:55:51.526Z,34.59
2022-08-03T14:58:21.085Z,34.38
2022-08-03T15:00:49.503Z,34.16
2022-08-03T15:03:17.413Z,34.60
2022-08-03T15:05:44.786Z,34.86
2022-08-03T15:08:13.777Z,34.64
2022-08-03T15:10:44.251Z,34.78
2022-08-03T15:13:15.708Z,34.60
2022-08-03T15:15:42.746Z,34.49
2022-08-03T15:18:09.770Z,34.55
2022-08-03T15:20:44.288Z,34.44
2022-08-03T15:23:13.498Z,34.28
2022-08-03T15:26:28.246Z,34.19
2022-08-03T15:28:27.251Z,34.18
2022-08-03T15:30:54.229Z,34.33
2022-08-03T15:33:21.204Z,34.44
2022-08-03T15:35:48.129Z,34.78
2022-08-03T15:38:16.396Z,34.96
2022-08-03T15:40:43.249Z,34.66
2022-08-03T15:43:10.104Z,34.76
2022-08-03T15:45:37.632Z,34.82
2022-08-03T15:48:07.388Z,34.59
2022-08-03T15:50:34.333Z,34.43
2022-08-03T15:53:03.351Z,34.32
2022-08-03T15:55:31.258Z,33.42
2022-08-03T15:59:03.434Z,33.83
2022-08-03T16:00:45.439Z,33.26
2022-08-03T16:03:12.425Z,33.45
2022-08-03T16:05:39.419Z,32.53
2022-08-03T16:08:09.142Z,33.12
2022-08-03T16:10:40.818Z,33.01
2022-08-03T16:13:08.079Z,32.48
2022-08-03T16:15:38.332Z,32.74
2022-08-03T16:18:08.868Z,32.39
2022-08-03T16:20:35.936Z,32.63
2022-08-03T16:23:11.620Z,32.63
2022-08-03T16:25:49.089Z,32.52
2022-08-03T16:28:17.440Z,32.26
2022-08-03T16:30:46.346Z,32.15
2022-08-03T16:33:16.807Z,31.92
2022-08-03T16:35:45.074Z,31.48
2022-08-03T16:38:16.791Z,31.54
2022-08-03T16:40:47.209Z,31.35
2022-08-03T16:43:18.526Z,31.49
2022-08-03T16:45:47.041Z,31.28
2022-08-03T16:48:15.322Z,31.61
2022-08-03T16:50:42.978Z,31.49
2022-08-03T16:53:16.353Z,31.21
2022-08-03T16:55:52.107Z,31.04
2022-08-03T16:58:41.601Z,30.87
2022-08-03T17:01:21.754Z,30.92
2022-08-03T17:04:01.438Z,30.99
2022-08-03T17:06:35.890Z,30.90
2022-08-03T17:09:08.823Z,30.64
2022-08-03T17:11:38.444Z,30.98
2022-08-03T17:14:12.268Z,30.79
2022-08-03T17:16:39.916Z,30.73
2022-08-03T17:19:23.990Z,30.84
2022-08-03T17:22:13.669Z,30.56
2022-08-03T17:24:54.178Z,31.09
2022-08-03T17:28:50.815Z,30.86
2022-08-03T17:30:16.131Z,30.48
2022-08-03T17:32:57.425Z,30.21
2022-08-03T17:35:34.404Z,30.00
2022-08-03T17:38:09.019Z,29.57
2022-08-03T17:40:38.011Z,29.52
2022-08-03T17:44:12.831Z,29.48
2022-08-03T17:45:54.794Z,29.17
2022-08-03T17:48:25.055Z,28.75
2022-08-03T17:50:57.989Z,28.68
2022-08-03T17:53:29.771Z,28.20
2022-08-03T17:56:40.838Z,28.26
2022-08-03T18:03:01.410Z,27.62
2022-08-03T18:06:09.027Z,27.14
2022-08-03T18:08:32.377Z,26.88
2022-08-03T18:11:09.597Z,26.78
2022-08-03T18:14:04.840Z,26.62
2022-08-03T18:16:56.687Z,26.50
2022-08-03T18:20:01.352Z,26.36
2022-08-03T18:22:13.331Z,26.02
2022-08-03T18:24:42.293Z,25.67
2022-08-03T18:27:11.154Z,25.70
2022-08-03T18:29:40.969Z,25.62
2022-08-03T18:32:13.517Z,25.45
2022-08-03T18:34:54.351Z,25.26
2022-08-03T18:37:25.463Z,25.07
2022-08-03T18:39:58.004Z,24.96
2022-08-03T18:42:27.041Z,25.01
2022-08-03T18:44:56.912Z,24.62
2022-08-03T18:47:52.070Z,24.47
2022-08-03T18:50:31.666Z,24.35
2022-08-03T18:54:03.075Z,24.25
2022-08-03T18:56:44.298Z,24.34
2022-08-03T18:59:30.400Z,24.19
2022-08-03T19:02:09.258Z,24.43
2022-08-03T19:04:47.818Z,24.24
2022-08-03T19:07:18.047Z,23.66
2022-08-03T19:09:54.760Z,24.32
2022-08-03T19:12:32.300Z,24.40
2022-08-03T19:15:13.448Z,24.43
2022-08-03T19:17:50.370Z,24.37
2022-08-03T19:20:22.381Z,24.09
2022-08-03T19:22:52.881Z,23.88
2022-08-03T19:25:19.982Z,23.83
2022-08-03T19:28:06.152Z,23.56
2022-08-03T19:30:46.279Z,23.42
2022-08-03T19:33:20.831Z,23.52
2022-08-03T19:35:55.355Z,23.22
2022-08-03T19:38:28.486Z,23.06
2022-08-03T19:41:03.924Z,22.78
2022-08-03T19:43:52.875Z,22.90
2022-08-03T19:46:30.668Z,22.76
2022-08-03T19:49:04.978Z,22.92
2022-08-03T19:52:00.968Z,22.75
2022-08-03T19:54:52.932Z,22.54
2022-08-03T19:57:24.481Z,22.30
2022-08-03T19:59:52.759Z,22.22
2022-08-03T20:02:26.637Z,22.44
2022-08-03T20:04:56.774Z,22.17
2022-08-03T20:07:25.171Z,21.77
2022-08-03T20:09:54.505Z,21.90
2022-08-03T20:12:29.296Z,22.10
2022-08-03T20:14:58.222Z,22.07
2022-08-03T20:17:55.607Z,21.84
2022-08-03T20:20:13.896Z,21.58
2022-08-03T20:22:45.526Z,21.71
2022-08-03T20:26:27.947Z,21.63
2022-08-03T20:29:00.078Z,21.51
2022-08-03T20:31:36.551Z,21.48
2022-08-03T20:34:04.312Z,21.38
2022-08-03T20:36:31.159Z,21.33
2022-08-03T20:38:58.411Z,21.02
2022-08-03T20:41:26.773Z,21.27
2022-08-03T20:43:53.765Z,21.18
2022-08-03T20:46:35.392Z,21.00
2022-08-03T20:49:08.658Z,21.04
2022-08-03T20:51:49.836Z,20.76
2022-08-03T20:54:28.818Z,20.75
2022-08-03T20:56:58.508Z,20.79
2022-08-03T20:59:47.184Z,20.53
2022-08-03T21:02:19.742Z,20.12
2022-08-03T21:04:56.120Z,19.90
2022-08-03T21:07:24.612Z,20.42
2022-08-03T21:10:15.470Z,20.37
2022-08-03T21:13:04.819Z,28.14
2022-08-03T21:13:22.590Z,20.02
2022-08-03T21:16:05.453Z,20.03
2022-08-03T21:18:49.230Z,19.81
2022-08-03T21:21:19.317Z,19.82
2022-08-03T21:23:50.507Z,19.84
2022-08-03T21:26:27.407Z,19.70
2022-08-03T21:28:56.651Z,19.68
2022-08-03T21:31:26.591Z,19.47
2022-08-03T21:34:05.220Z,19.57
2022-08-03T21:36:35.191Z,19.60
2022-08-03T21:39:05.368Z,19.61
2022-08-03T21:41:33.227Z,19.41
2022-08-03T21:44:01.396Z,19.40
2022-08-03T21:46:35.356Z,18.52
2022-08-03T21:50:04.786Z,18.20
2022-08-03T21:51:59.297Z,19.21
2022-08-03T21:54:41.949Z,19.04
2022-08-03T21:57:37.723Z,19.07
2022-08-03T22:00:19.804Z,18.99
2022-08-03T22:02:58.260Z,18.88
2022-08-03T22:05:42.644Z,18.78
2022-08-03T22:08:13.391Z,18.67
2022-08-03T22:10:40.582Z,18.63
2022-08-03T22:13:07.536Z,18.85
2022-08-03T22:15:34.458Z,18.94
2022-08-03T22:18:04.456Z,18.84
2022-08-03T22:20:31.422Z,18.56
2022-08-03T22:23:02.428Z,18.66
2022-08-03T22:25:32.226Z,18.07
2022-08-03T22:28:21.998Z,18.61
2022-08-03T22:30:49.800Z,18.51
2022-08-03T22:33:16.853Z,18.50
2022-08-03T22:35:47.853Z,18.58
2022-08-03T22:38:17.046Z,18.46
2022-08-03T22:40:44.206Z,18.16
2022-08-03T22:43:10.955Z,18.15
2022-08-03T22:45:45.832Z,18.00
2022-08-03T22:48:26.942Z,18.23
2022-08-03T22:50:54.789Z,18.03
2022-08-03T22:53:22.621Z,18.08
2022-08-03T22:55:50.419Z,18.16
2022-08-03T22:58:19.638Z,18.10
2022-08-03T23:01:08.025Z,18.03
2022-08-03T23:03:58.943Z,17.91
2022-08-03T23:06:30.248Z,17.89
2022-08-03T23:08:58.348Z,17.78
2022-08-03T23:11:27.666Z,17.58
2022-08-03T23:13:58.913Z,17.51
2022-08-03T23:16:28.583Z,17.62
2022-08-03T23:18:58.897Z,17.60
2022-08-03T23:21:59.828Z,17.49
2022-08-03T23:24:26.073Z,17.52
2022-08-03T23:27:01.825Z,17.45
2022-08-03T23:29:30.615Z,17.53
2022-08-03T23:31:59.503Z,17.40
2022-08-03T23:34:46.654Z,17.38
2022-08-03T23:37:15.545Z,17.36
2022-08-03T23:39:46.179Z,17.28
2022-08-03T23:42:20.550Z,17.35
2022-08-03T23:44:53.060Z,17.15
2022-08-03T23:47:20.032Z,17.07
2022-08-03T23:49:46.988Z,17.04
2022-08-03T23:52:47.100Z,17.09
2022-08-03T23:55:22.125Z,17.16
2022-08-03T23:58:29.186Z,17.10
